createdAt,value
2023-04-16T00:01:36.370Z,5.53
2023-04-16T00:04:10.505Z,5.54
2023-04-16T00:06:43.758Z,5.50
2023-04-16T00:09:16.823Z,5.52
2023-04-16T00:11:49.551Z,5.56
2023-04-16T00:14:22.363Z,5.55
2023-04-16T00:16:55.311Z,5.44
2023-04-16T00:19:28.352Z,5.41
2023-04-16T00:22:03.392Z,5.39
2023-04-16T00:24:36.088Z,5.32
2023-04-16T00:27:08.898Z,5.25
2023-04-16T00:29:41.447Z,5.24
2023-04-16T00:32:14.646Z,5.28
2023-04-16T00:34:47.372Z,5.31
2023-04-16T00:37:20.751Z,5.27
2023-04-16T00:39:53.970Z,5.16
2023-04-16T00:42:26.698Z,5.10
2023-04-16T00:44:59.739Z,5.03
2023-04-16T00:47:33.287Z,5.02
2023-04-16T00:50:06.786Z,4.99
2023-04-16T00:52:39.528Z,4.97
2023-04-16T00:55:13.764Z,4.93
2023-04-16T00:57:48.910Z,4.91
2023-04-16T01:00:21.989Z,4.88
2023-04-16T01:02:55.322Z,4.88
2023-04-16T01:05:28.062Z,4.85
2023-04-16T01:08:02.271Z,4.82
2023-04-16T01:10:34.753Z,4.80
2023-04-16T01:13:07.343Z,4.79
2023-04-16T01:15:42.746Z,4.75
2023-04-16T01:18:19.885Z,4.74
2023-04-16T01:20:52.812Z,4.70
2023-04-16T01:23:25.480Z,4.68
2023-04-16T01:25:59.149Z,4.64
2023-04-16T01:28:31.686Z,4.62
2023-04-16T01:31:07.165Z,4.60
2023-04-16T01:34:17.088Z,4.57
2023-04-16T01:36:50.432Z,4.54
2023-04-16T01:39:23.165Z,4.52
2023-04-16T01:41:56.246Z,4.50
2023-04-16T01:44:28.678Z,4.48
2023-04-16T01:47:02.071Z,4.44
2023-04-16T01:49:35.124Z,4.40
2023-04-16T01:52:08.912Z,4.38
2023-04-16T01:54:41.509Z,4.40
2023-04-16T01:57:14.406Z,4.36
2023-04-16T01:59:46.871Z,4.36
2023-04-16T02:02:21.683Z,4.32
2023-04-16T02:04:55.505Z,4.31
2023-04-16T02:07:28.284Z,4.32
2023-04-16T02:10:01.457Z,4.32
2023-04-16T02:12:32.612Z,4.36
2023-04-16T02:15:05.480Z,4.30
2023-04-16T02:17:38.306Z,4.34
2023-04-16T02:20:16.346Z,4.33
2023-04-16T02:22:57.089Z,4.36
2023-04-16T02:25:29.981Z,4.38
2023-04-16T02:28:03.649Z,4.43
2023-04-16T02:30:43.566Z,4.47
2023-04-16T02:33:16.846Z,4.48
2023-04-16T02:35:59.142Z,4.52
2023-04-16T02:38:31.671Z,4.56
2023-04-16T02:41:04.439Z,4.58
2023-04-16T02:43:37.138Z,4.65
2023-04-16T02:46:10.136Z,4.72
2023-04-16T02:48:42.648Z,4.79
2023-04-16T02:51:15.334Z,4.86
2023-04-16T02:53:47.856Z,4.95
2023-04-16T02:56:20.532Z,5.02
2023-04-16T02:58:53.202Z,5.09
2023-04-16T03:01:25.915Z,5.14
2023-04-16T03:03:58.387Z,5.20
2023-04-16T03:06:31.814Z,5.26
2023-04-16T03:09:04.297Z,5.33
2023-04-16T03:11:38.428Z,5.38
2023-04-16T03:14:12.307Z,5.41
2023-04-16T03:16:45.054Z,5.46
2023-04-16T03:19:17.827Z,5.49
2023-04-16T03:21:50.532Z,5.53
2023-04-16T03:24:24.081Z,5.54
2023-04-16T03:26:56.871Z,5.53
2023-04-16T03:29:29.450Z,5.56
2023-04-16T03:32:02.559Z,5.61
2023-04-16T03:34:35.050Z,5.64
2023-04-16T03:37:09.301Z,5.64
2023-04-16T03:39:42.009Z,5.66
2023-04-16T03:42:15.141Z,5.66
2023-04-16T03:44:47.932Z,5.70
2023-04-16T03:47:21.303Z,5.74
2023-04-16T03:49:54.475Z,5.76
2023-04-16T03:52:27.321Z,5.77
2023-04-16T03:55:00.531Z,5.76
2023-04-16T03:57:34.369Z,5.77
2023-04-16T04:00:12.856Z,5.77
2023-04-16T04:02:55.303Z,5.78
2023-04-16T04:05:28.742Z,5.80
2023-04-16T04:08:01.760Z,5.80
2023-04-16T04:10:37.353Z,5.76
2023-04-16T04:13:11.403Z,5.78
2023-04-16T04:15:44.250Z,5.79
2023-04-16T04:18:16.690Z,5.78
2023-04-16T04:20:49.559Z,5.80
2023-04-16T04:23:26.423Z,5.83
2023-04-16T04:25:59.873Z,5.82
2023-04-16T04:28:32.925Z,5.84
2023-04-16T04:31:05.798Z,5.86
2023-04-16T04:33:38.543Z,5.85
2023-04-16T04:36:12.455Z,5.86
2023-04-16T04:38:45.274Z,5.88
2023-04-16T04:41:18.189Z,5.90
2023-04-16T04:43:52.692Z,5.88
2023-04-16T04:46:25.418Z,5.89
2023-04-16T04:48:58.129Z,5.90
2023-04-16T04:51:30.672Z,5.94
2023-04-16T04:54:03.496Z,5.96
2023-04-16T04:56:36.104Z,5.95
2023-04-16T04:59:10.788Z,5.98
2023-04-16T05:01:43.766Z,6.03
2023-04-16T05:04:16.512Z,6.04
2023-04-16T05:06:49.568Z,6.08
2023-04-16T05:09:22.083Z,6.10
2023-04-16T05:11:54.817Z,6.12
2023-04-16T05:14:27.555Z,6.15
2023-04-16T05:17:00.081Z,6.19
2023-04-16T05:19:32.818Z,6.24
2023-04-16T05:22:05.418Z,6.25
2023-04-16T05:24:38.121Z,6.29
2023-04-16T05:27:11.013Z,6.31
2023-04-16T05:29:46.393Z,6.33
2023-04-16T05:32:19.100Z,6.40
2023-04-16T05:34:51.801Z,6.44
2023-04-16T05:37:24.793Z,6.51
2023-04-16T05:39:58.505Z,6.54
2023-04-16T05:42:31.131Z,6.56
2023-04-16T05:45:04.573Z,6.56
2023-04-16T05:47:37.347Z,6.61
2023-04-16T05:50:11.562Z,6.68
2023-04-16T05:52:44.136Z,6.70
2023-04-16T05:55:16.690Z,6.74
2023-04-16T05:57:49.833Z,6.74
2023-04-16T06:00:24.809Z,6.77
2023-04-16T06:02:57.360Z,6.80
2023-04-16T06:05:31.267Z,6.76
2023-04-16T06:08:05.274Z,6.79
2023-04-16T06:10:38.223Z,6.85
2023-04-16T06:13:11.251Z,6.90
2023-04-16T06:15:59.300Z,6.95
2023-04-16T06:18:32.830Z,7.03
2023-04-16T06:21:06.020Z,7.12
2023-04-16T06:23:38.581Z,7.14
2023-04-16T06:26:11.722Z,7.23
2023-04-16T06:28:54.054Z,7.30
2023-04-16T06:31:29.952Z,7.51
2023-04-16T06:34:02.564Z,7.73
2023-04-16T06:36:35.055Z,7.92
2023-04-16T06:39:07.775Z,8.15
2023-04-16T06:41:40.475Z,8.38
2023-04-16T06:44:16.613Z,8.53
2023-04-16T06:46:50.694Z,8.59
2023-04-16T06:49:23.294Z,8.61
2023-04-16T06:51:55.990Z,8.61
2023-04-16T06:54:28.624Z,8.72
2023-04-16T06:57:01.934Z,8.88
2023-04-16T06:59:38.363Z,8.93
2023-04-16T07:02:14.420Z,8.99
2023-04-16T07:04:47.570Z,9.06
2023-04-16T07:07:20.215Z,9.12
2023-04-16T07:09:54.940Z,9.17
2023-04-16T07:12:28.339Z,9.19
2023-04-16T07:15:01.648Z,9.16
2023-04-16T07:17:34.823Z,9.17
2023-04-16T07:20:11.504Z,9.19
2023-04-16T07:22:44.317Z,9.17
2023-04-16T07:25:16.892Z,9.18
2023-04-16T07:27:50.128Z,9.26
2023-04-16T07:30:23.399Z,9.32
2023-04-16T07:32:57.175Z,9.34
2023-04-16T07:35:29.775Z,9.31
2023-04-16T07:38:02.699Z,9.32
2023-04-16T07:40:35.176Z,9.39
2023-04-16T07:43:08.499Z,9.44
2023-04-16T07:45:41.651Z,9.48
2023-04-16T07:48:14.751Z,9.60
2023-04-16T07:50:47.397Z,9.67
2023-04-16T07:53:20.166Z,9.74
2023-04-16T07:55:52.700Z,9.84
2023-04-16T07:58:25.443Z,9.82
2023-04-16T08:00:58.660Z,9.82
2023-04-16T08:03:31.733Z,10.00
2023-04-16T08:06:04.744Z,10.14
2023-04-16T08:08:37.614Z,10.19
2023-04-16T08:11:10.312Z,10.23
2023-04-16T08:13:44.552Z,10.32
2023-04-16T08:16:17.305Z,10.52
2023-04-16T08:18:50.158Z,10.65
2023-04-16T08:21:23.803Z,10.76
2023-04-16T08:23:57.005Z,10.83
2023-04-16T08:26:29.594Z,10.97
2023-04-16T08:29:02.301Z,11.24
2023-04-16T08:31:34.919Z,11.56
2023-04-16T08:34:09.143Z,11.57
2023-04-16T08:36:42.064Z,11.66
2023-04-16T08:39:14.765Z,11.66
2023-04-16T08:41:49.320Z,11.68
2023-04-16T08:44:27.738Z,11.76
2023-04-16T08:47:01.532Z,11.73
2023-04-16T08:49:38.233Z,11.76
2023-04-16T08:52:15.958Z,11.99
2023-04-16T08:54:59.085Z,12.42
2023-04-16T08:57:38.901Z,12.60
2023-04-16T09:00:15.418Z,12.59
2023-04-16T09:02:50.613Z,12.55
2023-04-16T09:05:26.146Z,12.43
2023-04-16T09:07:59.111Z,12.60
2023-04-16T09:10:32.056Z,12.94
2023-04-16T09:13:04.723Z,13.20
2023-04-16T09:15:37.933Z,13.21
2023-04-16T09:18:10.663Z,13.19
2023-04-16T09:20:43.819Z,13.06
2023-04-16T09:23:16.485Z,13.03
2023-04-16T09:25:49.201Z,13.02
2023-04-16T09:28:43.018Z,13.07
2023-04-16T09:31:15.142Z,13.08
2023-04-16T09:34:04.769Z,13.39
2023-04-16T09:36:38.529Z,13.75
2023-04-16T09:39:20.336Z,13.98
2023-04-16T09:41:55.213Z,14.09
2023-04-16T09:44:39.091Z,14.33
2023-04-16T09:47:13.297Z,14.32
2023-04-16T09:49:47.252Z,14.40
2023-04-16T09:52:21.435Z,14.58
2023-04-16T09:54:55.445Z,14.72
2023-04-16T09:57:29.194Z,14.89
2023-04-16T10:00:08.111Z,15.02
2023-04-16T10:02:47.044Z,15.01
2023-04-16T10:05:23.853Z,15.00
2023-04-16T10:08:01.611Z,15.23
2023-04-16T10:10:34.179Z,15.23
2023-04-16T10:13:11.039Z,15.21
2023-04-16T10:15:44.653Z,15.20
2023-04-16T10:18:18.238Z,15.00
2023-04-16T10:20:52.904Z,15.00
2023-04-16T10:23:25.878Z,15.17
2023-04-16T10:26:00.128Z,15.36
2023-04-16T10:28:35.882Z,15.42
2023-04-16T10:31:10.584Z,15.21
2023-04-16T10:33:47.087Z,15.19
2023-04-16T10:36:27.233Z,15.21
2023-04-16T10:39:02.856Z,15.60
2023-04-16T10:41:36.214Z,15.81
2023-04-16T10:44:10.031Z,15.83
2023-04-16T10:46:44.064Z,15.60
2023-04-16T10:49:30.342Z,15.75
2023-04-16T10:52:14.563Z,15.75
2023-04-16T10:54:48.315Z,15.62
2023-04-16T10:57:21.995Z,15.65
2023-04-16T10:59:56.844Z,15.48
2023-04-16T11:02:33.253Z,15.41
2023-04-16T11:05:07.049Z,15.32
2023-04-16T11:07:39.795Z,15.15
2023-04-16T11:10:19.557Z,15.38
2023-04-16T11:12:52.988Z,15.37
2023-04-16T11:15:31.251Z,15.35
2023-04-16T11:18:07.323Z,15.53
2023-04-16T11:20:47.783Z,15.38
2023-04-16T11:23:21.042Z,15.51
2023-04-16T11:25:58.027Z,15.45
2023-04-16T11:28:41.270Z,15.24
2023-04-16T11:31:17.255Z,15.27
2023-04-16T11:33:50.487Z,15.44
2023-04-16T11:36:27.706Z,15.46
2023-04-16T11:39:06.628Z,15.11
2023-04-16T11:41:46.457Z,14.78
2023-04-16T11:44:24.110Z,14.65
2023-04-16T11:46:57.289Z,14.60
2023-04-16T11:49:33.599Z,14.32
2023-04-16T11:52:06.537Z,14.21
2023-04-16T11:54:41.989Z,14.00
2023-04-16T11:57:15.599Z,14.11
2023-04-16T12:00:02.165Z,14.16
2023-04-16T12:02:53.752Z,14.23
2023-04-16T12:05:35.241Z,14.32
2023-04-16T12:08:09.790Z,14.25
2023-04-16T12:10:56.963Z,14.35
2023-04-16T12:13:29.574Z,14.40
2023-04-16T12:16:02.504Z,14.48
2023-04-16T12:18:35.396Z,14.57
2023-04-16T12:21:09.864Z,14.83
2023-04-16T12:23:42.934Z,14.93
2023-04-16T12:26:15.541Z,14.86
2023-04-16T12:28:48.448Z,14.96
2023-04-16T12:31:38.354Z,15.16
2023-04-16T12:34:12.502Z,15.14
2023-04-16T12:36:45.164Z,14.93
2023-04-16T12:39:18.872Z,15.04
2023-04-16T12:41:51.612Z,14.83
2023-04-16T12:44:24.588Z,14.90
2023-04-16T12:46:57.732Z,14.90
2023-04-16T12:49:31.371Z,14.77
2023-04-16T12:52:04.374Z,14.58
2023-04-16T12:54:37.844Z,14.71
2023-04-16T12:57:10.849Z,14.81
2023-04-16T12:59:49.356Z,14.83
2023-04-16T13:02:22.002Z,14.96
2023-04-16T13:04:56.078Z,15.16
2023-04-16T13:07:28.634Z,15.23
2023-04-16T13:10:01.558Z,15.32
2023-04-16T13:12:35.212Z,15.38
2023-04-16T13:15:09.833Z,15.49
2023-04-16T13:17:44.125Z,15.47
2023-04-16T13:20:18.546Z,15.45
2023-04-16T13:22:55.983Z,15.48
2023-04-16T13:25:30.759Z,15.44
2023-04-16T13:28:08.212Z,15.28
2023-04-16T13:30:41.963Z,15.17
2023-04-16T13:33:15.366Z,15.09
2023-04-16T13:35:48.813Z,15.11
2023-04-16T13:38:23.727Z,15.15
2023-04-16T13:40:56.840Z,15.03
2023-04-16T13:43:29.580Z,14.98
2023-04-16T13:46:05.238Z,14.89
2023-04-16T13:48:39.570Z,14.81
2023-04-16T13:51:12.407Z,14.65
2023-04-16T13:53:48.250Z,14.67
2023-04-16T13:56:21.459Z,14.70
2023-04-16T13:58:54.489Z,14.81
2023-04-16T14:01:27.291Z,14.94
2023-04-16T14:04:02.359Z,14.98
2023-04-16T14:06:35.951Z,14.92
2023-04-16T14:09:06.508Z,14.90
2023-04-16T14:11:39.743Z,14.85
2023-04-16T14:14:12.951Z,14.90
2023-04-16T14:16:49.014Z,14.99
2023-04-16T14:19:21.779Z,15.08
2023-04-16T14:21:54.649Z,15.17
2023-04-16T14:24:27.146Z,15.33
2023-04-16T14:26:59.772Z,15.54
2023-04-16T14:29:32.720Z,15.64
2023-04-16T14:32:05.590Z,15.76
2023-04-16T14:34:38.516Z,15.78
2023-04-16T14:37:11.919Z,15.84
2023-04-16T14:39:44.961Z,15.85
2023-04-16T14:42:20.081Z,15.80
2023-04-16T14:44:52.934Z,15.90
2023-04-16T14:47:28.320Z,15.98
2023-04-16T14:50:01.076Z,16.02
2023-04-16T14:52:35.506Z,16.05
2023-04-16T14:55:09.000Z,16.05
2023-04-16T14:57:42.383Z,16.05
2023-04-16T15:00:17.579Z,16.02
2023-04-16T15:02:50.509Z,15.97
2023-04-16T15:05:23.594Z,15.89
2023-04-16T15:07:56.176Z,15.92
2023-04-16T15:10:28.787Z,15.88
2023-04-16T15:13:01.455Z,15.92
2023-04-16T15:15:34.692Z,15.97
2023-04-16T15:18:09.073Z,15.94
2023-04-16T15:20:41.791Z,16.00
2023-04-16T15:23:15.042Z,16.04
2023-04-16T15:25:47.749Z,15.99
2023-04-16T15:28:19.709Z,15.93
2023-04-16T15:30:53.876Z,15.81
2023-04-16T15:33:27.005Z,15.83
2023-04-16T15:35:59.733Z,15.83
2023-04-16T15:38:32.600Z,15.80
2023-04-16T15:41:05.623Z,15.80
2023-04-16T15:43:36.798Z,15.81
2023-04-16T15:46:09.489Z,15.70
2023-04-16T15:48:42.411Z,15.76
2023-04-16T15:51:15.404Z,15.72
2023-04-16T15:54:03.411Z,15.69
2023-04-16T15:56:40.122Z,15.70
2023-04-16T15:59:13.266Z,15.66
2023-04-16T16:01:46.403Z,15.60
2023-04-16T16:04:17.443Z,15.58
2023-04-16T16:06:50.323Z,15.51
2023-04-16T16:09:26.624Z,15.53
2023-04-16T16:12:00.226Z,15.51
2023-04-16T16:14:31.284Z,15.49
2023-04-16T16:17:05.576Z,15.41
2023-04-16T16:19:39.988Z,15.43
2023-04-16T16:22:13.546Z,15.41
2023-04-16T16:24:46.543Z,15.38
2023-04-16T16:27:19.110Z,15.34
2023-04-16T16:29:51.837Z,15.29
2023-04-16T16:32:25.914Z,15.27
2023-04-16T16:35:00.159Z,15.22
2023-04-16T16:37:33.907Z,15.14
2023-04-16T16:40:08.007Z,15.11
2023-04-16T16:42:41.442Z,15.05
2023-04-16T16:45:15.231Z,14.96
2023-04-16T16:47:50.352Z,14.90
2023-04-16T16:50:24.466Z,14.83
2023-04-16T16:52:57.082Z,14.79
2023-04-16T16:55:30.482Z,14.74
2023-04-16T16:58:03.345Z,14.70
2023-04-16T17:00:38.817Z,14.64
2023-04-16T17:03:14.464Z,14.59
2023-04-16T17:05:47.623Z,14.51
2023-04-16T17:08:22.064Z,14.44
2023-04-16T17:10:55.955Z,14.36
2023-04-16T17:13:30.563Z,14.30
2023-04-16T17:16:04.092Z,14.21
2023-04-16T17:18:34.685Z,14.14
2023-04-16T17:21:08.166Z,14.02
2023-04-16T17:23:41.014Z,14.00
2023-04-16T17:26:14.239Z,13.87
2023-04-16T17:28:48.506Z,13.85
2023-04-16T17:31:22.075Z,13.79
2023-04-16T17:33:54.876Z,13.72
2023-04-16T17:36:27.909Z,13.65
2023-04-16T17:39:00.849Z,13.58
2023-04-16T17:41:32.115Z,13.51
2023-04-16T17:44:09.819Z,13.38
2023-04-16T17:46:44.936Z,13.34
2023-04-16T17:49:18.023Z,13.28
2023-04-16T17:51:52.312Z,13.23
2023-04-16T17:54:25.370Z,13.16
2023-04-16T17:56:57.907Z,13.09
2023-04-16T17:59:30.424Z,12.82
2023-04-16T18:02:03.821Z,12.56
2023-04-16T18:04:42.807Z,12.39
2023-04-16T18:07:16.998Z,12.29
2023-04-16T18:09:50.625Z,12.20
2023-04-16T18:12:24.213Z,12.04
2023-04-16T18:14:54.796Z,11.86
2023-04-16T18:17:28.210Z,11.70
2023-04-16T18:19:59.664Z,11.67
2023-04-16T18:22:36.074Z,11.53
2023-04-16T18:25:13.786Z,11.49
2023-04-16T18:27:46.555Z,11.46
2023-04-16T18:30:25.442Z,11.46
2023-04-16T18:33:44.496Z,11.49
2023-04-16T18:36:15.001Z,11.45
2023-04-16T18:38:59.965Z,11.33
2023-04-16T18:41:36.851Z,11.22
2023-04-16T18:44:29.514Z,11.15
2023-04-16T18:47:02.510Z,11.04
2023-04-16T18:49:36.459Z,10.98
2023-04-16T18:52:09.409Z,10.96
2023-04-16T18:54:44.620Z,10.96
2023-04-16T18:57:24.929Z,10.95
2023-04-16T18:59:57.771Z,10.97
2023-04-16T19:02:31.837Z,11.00
2023-04-16T19:05:04.968Z,11.02
2023-04-16T19:07:38.070Z,11.04
2023-04-16T19:10:12.872Z,11.06
2023-04-16T19:12:46.727Z,11.08
2023-04-16T19:15:21.912Z,11.11
2023-04-16T19:17:54.770Z,11.12
2023-04-16T19:20:29.110Z,11.13
2023-04-16T19:23:03.532Z,11.15
2023-04-16T19:25:40.254Z,11.15
2023-04-16T19:28:14.800Z,11.15
2023-04-16T19:30:51.528Z,11.13
2023-04-16T19:33:25.088Z,11.13
2023-04-16T19:35:58.215Z,11.13
2023-04-16T19:38:34.143Z,11.12
2023-04-16T19:41:07.263Z,11.07
2023-04-16T19:43:39.889Z,11.03
2023-04-16T19:46:12.865Z,11.02
2023-04-16T19:48:45.435Z,11.00
2023-04-16T19:51:18.577Z,10.98
2023-04-16T19:53:55.658Z,10.96
2023-04-16T19:56:29.653Z,10.93
2023-04-16T19:59:02.821Z,10.91
2023-04-16T20:01:36.900Z,10.88
2023-04-16T20:04:09.504Z,10.84
2023-04-16T20:06:42.513Z,10.81
2023-04-16T20:09:15.082Z,10.75
2023-04-16T20:11:48.652Z,10.67
2023-04-16T20:14:19.421Z,10.58
2023-04-16T20:16:52.620Z,10.49
2023-04-16T20:19:26.450Z,10.49
2023-04-16T20:21:59.201Z,10.50
2023-04-16T20:24:32.041Z,10.51
2023-04-16T20:27:04.876Z,10.49
2023-04-16T20:29:37.490Z,10.47
2023-04-16T20:32:10.879Z,10.45
2023-04-16T20:34:43.838Z,10.40
2023-04-16T20:37:17.131Z,10.35
2023-04-16T20:39:50.504Z,10.30
2023-04-16T20:42:35.398Z,10.19
2023-04-16T20:45:09.331Z,10.15
2023-04-16T20:47:44.031Z,10.10
2023-04-16T20:50:16.950Z,10.06
2023-04-16T20:52:50.481Z,10.03
2023-04-16T20:55:24.675Z,9.96
2023-04-16T20:57:58.247Z,9.91
2023-04-16T21:00:30.769Z,9.90
2023-04-16T21:03:03.936Z,9.85
2023-04-16T21:05:37.478Z,9.79
2023-04-16T21:08:11.827Z,9.74
2023-04-16T21:10:46.525Z,9.69
2023-04-16T21:13:22.263Z,9.64
2023-04-16T21:15:55.066Z,9.65
2023-04-16T21:18:29.352Z,9.64
2023-04-16T21:21:01.993Z,9.60
2023-04-16T21:23:35.220Z,9.60
2023-04-16T21:26:07.844Z,9.60
2023-04-16T21:28:48.598Z,9.57
2023-04-16T21:31:22.908Z,9.46
2023-04-16T21:33:57.239Z,9.38
2023-04-16T21:36:32.409Z,9.36
2023-04-16T21:39:05.333Z,9.30
2023-04-16T21:41:38.544Z,9.18
2023-04-16T21:44:11.322Z,9.04
2023-04-16T21:46:46.987Z,8.95
2023-04-16T21:49:19.921Z,8.92
2023-04-16T21:51:59.479Z,8.87
2023-04-16T21:54:32.033Z,8.84
2023-04-16T21:57:05.040Z,8.87
2023-04-16T21:59:37.954Z,8.91
2023-04-16T22:02:10.877Z,8.90
2023-04-16T22:04:44.081Z,8.89
2023-04-16T22:07:17.227Z,8.86
2023-04-16T22:09:50.027Z,8.85
2023-04-16T22:12:23.095Z,8.85
2023-04-16T22:15:02.479Z,8.85
2023-04-16T22:17:36.403Z,8.83
2023-04-16T22:20:13.563Z,8.82
2023-04-16T22:22:46.946Z,8.82
2023-04-16T22:25:19.526Z,8.79
2023-04-16T22:27:52.345Z,8.79
2023-04-16T22:30:25.975Z,8.78
2023-04-16T22:32:58.602Z,8.75
2023-04-16T22:35:31.552Z,8.76
2023-04-16T22:38:04.129Z,8.77
2023-04-16T22:40:36.811Z,8.62
2023-04-16T22:43:09.462Z,8.47
2023-04-16T22:45:43.413Z,8.34
2023-04-16T22:48:16.070Z,8.22
2023-04-16T22:50:51.536Z,8.19
2023-04-16T22:53:24.211Z,8.17
2023-04-16T22:55:57.232Z,8.18
2023-04-16T22:58:29.834Z,8.16
2023-04-16T23:01:02.795Z,8.16
2023-04-16T23:03:36.503Z,8.21
2023-04-16T23:06:10.055Z,8.19
2023-04-16T23:08:42.665Z,8.17
2023-04-16T23:11:15.453Z,8.19
2023-04-16T23:13:48.326Z,8.21
2023-04-16T23:16:21.194Z,8.25
2023-04-16T23:18:55.205Z,8.23
2023-04-16T23:21:29.273Z,8.21
2023-04-16T23:24:02.383Z,8.23
2023-04-16T23:26:36.540Z,8.25
2023-04-16T23:29:10.001Z,8.27
2023-04-16T23:31:43.053Z,8.26
2023-04-16T23:34:16.063Z,8.24
2023-04-16T23:36:48.752Z,8.26
2023-04-16T23:39:23.217Z,8.26
2023-04-16T23:41:55.884Z,8.25
2023-04-16T23:44:28.610Z,8.25
2023-04-16T23:47:02.965Z,8.23
2023-04-16T23:49:35.966Z,8.22
2023-04-16T23:52:09.142Z,8.20
2023-04-16T23:54:41.780Z,8.16
2023-04-16T23:57:15.492Z,8.15
2023-04-16T23:59:48.076Z,8.16
